Comotara, Kansas
Current Conditions -  °F | °C
As of 8:54 AM on Thursday 23 Oct 2014 (Local Time) from KAAO Reporting Station
Haze Haze  
Wind Chill: 62°   Ceiling: 600
Heat Index: 62°   Visibility: 6mi
Dew Point: 60°   Wind: 8mph
Humidity: 93%   Direction: 190°S
Pressure: 30.1"   Gusts: NA
Location:  37.7646°N, 97.2186°W
Report Text: KAAO 231354Z AUTO 19007KT 6SM BR OVC006 17/16 A3010 RMK AO2 SLP185 T01670156 $
Loading
Personal Weather Stations






























Interactive Weather Map
Tropical Storm Tracking
New forecast layout! Learn more

10-Day Weather Forecast

Advertisements
Track Severe Weather on mobile